createdAt,value
2023-02-07T00:01:17.404Z,4.90
2023-02-07T00:06:17.070Z,3.13
2023-02-07T00:08:45.283Z,4.15
2023-02-07T00:11:20.356Z,4.75
2023-02-07T00:13:50.344Z,4.32
2023-02-07T00:16:17.270Z,4.25
2023-02-07T00:18:45.327Z,3.75
2023-02-07T00:21:15.445Z,3.40
2023-02-07T00:23:43.598Z,5.05
2023-02-07T00:26:11.383Z,3.90
2023-02-07T00:28:38.828Z,4.05
2023-02-07T00:31:14.938Z,5.88
2023-02-07T00:33:43.686Z,3.97
2023-02-07T00:38:39.752Z,3.80
2023-02-07T00:41:07.432Z,4.22
2023-02-07T00:43:34.818Z,4.07
2023-02-07T00:46:04.061Z,3.85
2023-02-07T00:48:33.471Z,4.20
2023-02-07T00:51:00.730Z,4.50
2023-02-07T00:53:28.954Z,5.13
2023-02-07T00:55:56.148Z,4.60
2023-02-07T00:58:23.173Z,4.05
2023-02-07T01:00:50.794Z,4.45
2023-02-07T01:03:18.282Z,4.85
2023-02-07T01:05:44.979Z,3.75
2023-02-07T01:08:11.941Z,4.20
2023-02-07T01:10:43.705Z,5.55
2023-02-07T01:13:12.007Z,4.78
2023-02-07T01:15:40.736Z,4.05
2023-02-07T01:18:09.095Z,4.38
2023-02-07T01:20:38.587Z,3.75
2023-02-07T01:23:06.160Z,5.07
2023-02-07T01:25:32.838Z,4.93
2023-02-07T01:27:59.617Z,5.03
2023-02-07T01:30:27.385Z,5.75
2023-02-07T01:32:54.031Z,4.43
2023-02-07T01:35:21.214Z,4.55
2023-02-07T01:37:48.095Z,3.58
2023-02-07T01:40:15.199Z,4.38
2023-02-07T01:42:42.599Z,5.30
2023-02-07T01:45:22.628Z,4.70
2023-02-07T01:47:53.087Z,4.80
2023-02-07T01:50:20.570Z,4.35
2023-02-07T01:52:48.992Z,5.78
2023-02-07T01:55:22.727Z,6.50
2023-02-07T01:57:51.098Z,6.45
2023-02-07T02:00:18.601Z,6.60
2023-02-07T02:02:47.253Z,5.97
2023-02-07T02:07:42.287Z,6.65
2023-02-07T02:10:20.855Z,5.43
2023-02-07T02:13:03.785Z,6.40
2023-02-07T02:15:48.507Z,6.40
2023-02-07T02:18:49.624Z,6.18
2023-02-07T02:21:41.792Z,6.60
2023-02-07T02:24:32.957Z,7.15
2023-02-07T02:27:37.356Z,5.88
2023-02-07T02:30:33.014Z,6.43
2023-02-07T02:33:06.275Z,5.43
2023-02-07T02:36:08.328Z,5.80
2023-02-07T02:39:05.448Z,5.55
2023-02-07T02:41:47.056Z,4.85
2023-02-07T02:44:30.918Z,6.28
2023-02-07T02:46:59.385Z,5.78
2023-02-07T02:49:26.815Z,5.40
2023-02-07T02:51:54.565Z,5.65
2023-02-07T02:54:33.444Z,7.07
2023-02-07T02:57:35.722Z,5.65
2023-02-07T03:00:22.633Z,4.80
2023-02-07T03:06:04.541Z,4.00
2023-02-07T03:08:54.297Z,5.20
2023-02-07T03:11:24.494Z,5.45
2023-02-07T03:14:23.907Z,5.13
2023-02-07T03:17:21.582Z,6.18
2023-02-07T03:19:52.931Z,5.90
2023-02-07T03:22:23.202Z,5.97
2023-02-07T03:24:54.346Z,5.82
2023-02-07T03:27:23.170Z,7.00
2023-02-07T03:32:20.559Z,5.35
2023-02-07T03:34:59.587Z,5.93
2023-02-07T03:37:36.697Z,5.53
2023-02-07T03:40:05.514Z,6.05
2023-02-07T03:42:46.446Z,6.35
2023-02-07T03:45:16.989Z,6.55
2023-02-07T03:47:43.860Z,8.15
2023-02-07T03:50:11.304Z,7.88
2023-02-07T03:52:37.912Z,7.03
2023-02-07T03:55:05.558Z,8.00
2023-02-07T03:57:32.755Z,8.48
2023-02-07T03:59:59.833Z,8.32
2023-02-07T04:02:26.948Z,8.88
2023-02-07T04:04:53.931Z,8.32
2023-02-07T04:07:20.583Z,9.30
2023-02-07T04:09:47.232Z,9.38
2023-02-07T04:12:13.831Z,9.45
2023-02-07T04:14:41.641Z,9.57
2023-02-07T04:17:08.470Z,9.65
2023-02-07T04:19:36.082Z,8.88
2023-02-07T04:22:02.725Z,9.00
2023-02-07T04:24:32.121Z,9.02
2023-02-07T04:27:00.500Z,8.18
2023-02-07T04:29:28.258Z,9.23
2023-02-07T04:31:55.633Z,10.75
2023-02-07T04:34:23.849Z,9.18
2023-02-07T04:36:53.694Z,9.30
2023-02-07T04:39:21.082Z,9.02
2023-02-07T04:41:48.110Z,7.70
2023-02-07T04:44:16.332Z,9.43
2023-02-07T04:46:44.187Z,8.45
2023-02-07T04:49:12.332Z,7.63
2023-02-07T04:51:38.969Z,9.02
2023-02-07T04:54:05.687Z,9.45
2023-02-07T04:56:32.372Z,8.68
2023-02-07T04:58:59.467Z,8.85
2023-02-07T05:01:27.532Z,9.20
2023-02-07T05:03:55.487Z,9.50
2023-02-07T05:06:23.091Z,8.73
2023-02-07T05:08:50.042Z,8.38
2023-02-07T05:11:18.786Z,9.77
2023-02-07T05:13:45.600Z,9.63
2023-02-07T05:16:12.213Z,9.55
2023-02-07T05:18:39.425Z,11.45
2023-02-07T05:21:06.307Z,9.93
2023-02-07T05:23:37.261Z,10.68
2023-02-07T05:26:05.217Z,9.40
2023-02-07T05:28:33.190Z,10.65
2023-02-07T05:30:59.817Z,10.23
2023-02-07T05:33:27.512Z,10.85
2023-02-07T05:35:54.063Z,9.93
2023-02-07T05:38:21.644Z,10.43
2023-02-07T05:40:49.160Z,10.45
2023-02-07T05:43:16.275Z,10.50
2023-02-07T05:45:43.599Z,10.95
2023-02-07T05:48:10.279Z,11.38
2023-02-07T05:50:37.496Z,11.43
2023-02-07T05:53:05.147Z,10.07
2023-02-07T05:55:31.982Z,11.27
2023-02-07T05:57:58.765Z,12.68
2023-02-07T06:00:26.166Z,10.57
2023-02-07T06:02:53.265Z,11.27
2023-02-07T06:05:23.887Z,11.00
2023-02-07T06:07:52.484Z,12.07
2023-02-07T06:10:22.458Z,10.48
2023-02-07T06:12:50.641Z,11.45
2023-02-07T06:15:17.261Z,11.65
2023-02-07T06:17:45.210Z,12.18
2023-02-07T06:20:12.188Z,11.60
2023-02-07T06:22:38.808Z,11.02
2023-02-07T06:25:11.515Z,11.40
2023-02-07T06:27:40.150Z,11.35
2023-02-07T06:30:08.474Z,12.00
2023-02-07T06:32:37.253Z,11.25
2023-02-07T06:35:05.742Z,10.93
2023-02-07T06:37:32.526Z,12.30
2023-02-07T06:39:59.960Z,12.18
2023-02-07T06:42:29.125Z,10.38
2023-02-07T06:44:55.706Z,11.80
2023-02-07T06:47:22.356Z,13.30
2023-02-07T06:49:49.521Z,10.68
2023-02-07T06:52:20.101Z,12.15
2023-02-07T06:54:46.674Z,12.25
2023-02-07T06:57:14.229Z,12.88
2023-02-07T06:59:40.862Z,11.48
2023-02-07T07:02:11.684Z,12.52
2023-02-07T07:04:38.897Z,11.23
2023-02-07T07:07:05.854Z,11.82
2023-02-07T07:09:34.041Z,11.95
2023-02-07T07:12:01.526Z,11.30
2023-02-07T07:14:28.370Z,13.20
2023-02-07T07:16:56.885Z,12.60
2023-02-07T07:19:23.676Z,12.60
2023-02-07T07:21:53.137Z,11.93
2023-02-07T07:24:20.294Z,12.82
2023-02-07T07:26:50.029Z,13.00
2023-02-07T07:29:19.527Z,11.43
2023-02-07T07:31:47.713Z,12.00
2023-02-07T07:34:15.580Z,13.65
2023-02-07T07:36:42.922Z,10.88
2023-02-07T07:39:10.708Z,12.20
2023-02-07T07:41:37.436Z,12.15
2023-02-07T07:44:04.296Z,13.32
2023-02-07T07:46:31.220Z,11.82
2023-02-07T07:48:58.677Z,13.10
2023-02-07T07:51:26.656Z,11.55
2023-02-07T07:53:53.439Z,12.25
2023-02-07T07:56:21.201Z,11.68
2023-02-07T07:58:48.794Z,12.25
2023-02-07T08:01:15.836Z,13.85
2023-02-07T08:03:42.638Z,12.75
2023-02-07T08:06:09.583Z,13.77
2023-02-07T08:08:36.538Z,14.00
2023-02-07T08:11:09.145Z,12.25
2023-02-07T08:13:36.689Z,14.75
2023-02-07T08:16:05.238Z,13.75
2023-02-07T08:18:32.935Z,12.52
2023-02-07T08:21:00.611Z,13.55
2023-02-07T08:23:27.270Z,13.93
2023-02-07T08:25:53.818Z,12.57
2023-02-07T08:28:20.862Z,13.25
2023-02-07T08:30:49.744Z,15.27
2023-02-07T08:33:16.931Z,15.98
2023-02-07T08:35:44.210Z,14.40
2023-02-07T08:38:10.797Z,14.73
2023-02-07T08:40:38.020Z,14.85
2023-02-07T08:43:12.692Z,14.30
2023-02-07T08:45:40.983Z,13.93
2023-02-07T08:48:08.417Z,14.95
2023-02-07T08:50:36.063Z,12.95
2023-02-07T08:53:04.154Z,14.57
2023-02-07T08:55:32.244Z,14.57
2023-02-07T08:57:59.131Z,17.17
2023-02-07T09:00:25.924Z,15.15
2023-02-07T09:02:56.254Z,16.15
2023-02-07T09:05:23.076Z,14.27
2023-02-07T09:07:49.841Z,14.60
2023-02-07T09:10:16.659Z,14.15
2023-02-07T09:12:43.715Z,14.70
2023-02-07T09:15:10.813Z,16.67
2023-02-07T09:17:37.621Z,14.07
2023-02-07T09:20:06.117Z,14.70
2023-02-07T09:22:54.062Z,15.50
2023-02-07T09:25:20.911Z,15.35
2023-02-07T09:27:47.767Z,14.32
2023-02-07T09:30:14.874Z,14.93
2023-02-07T09:32:41.613Z,15.18
2023-02-07T09:35:08.941Z,13.57
2023-02-07T09:37:48.694Z,12.70
2023-02-07T09:40:20.576Z,13.48
2023-02-07T09:43:09.050Z,13.73
2023-02-07T09:45:40.678Z,14.32
2023-02-07T09:48:18.227Z,12.73
2023-02-07T09:51:07.481Z,12.43
2023-02-07T09:54:15.516Z,11.93
2023-02-07T09:56:42.527Z,11.57
2023-02-07T09:59:28.732Z,10.20
2023-02-07T10:02:06.196Z,11.32
2023-02-07T10:04:38.557Z,12.27
2023-02-07T10:07:10.212Z,10.02
2023-02-07T10:09:41.399Z,11.50
2023-02-07T10:12:42.592Z,11.93
2023-02-07T10:15:14.263Z,11.20
2023-02-07T10:18:07.625Z,10.43
2023-02-07T10:20:46.400Z,10.80
2023-02-07T10:23:20.904Z,10.68
2023-02-07T10:25:54.379Z,10.70
2023-02-07T10:28:45.410Z,12.48
2023-02-07T10:31:20.198Z,10.13
2023-02-07T10:34:04.297Z,9.82
2023-02-07T10:36:34.514Z,11.90
2023-02-07T10:39:10.144Z,9.60
2023-02-07T10:41:40.517Z,10.70
2023-02-07T10:44:17.504Z,9.38
2023-02-07T10:46:47.587Z,10.25
2023-02-07T10:49:25.491Z,9.13
2023-02-07T10:52:17.924Z,9.43
2023-02-07T10:54:58.324Z,7.95
2023-02-07T10:57:26.818Z,9.25
2023-02-07T11:00:00.109Z,7.78
2023-02-07T11:02:49.912Z,10.45
2023-02-07T11:05:17.113Z,9.23
2023-02-07T11:08:23.049Z,9.93
2023-02-07T11:10:52.236Z,8.63
2023-02-07T11:13:22.169Z,7.80
2023-02-07T11:16:08.141Z,8.77
2023-02-07T11:18:44.966Z,9.77
2023-02-07T11:21:45.509Z,9.02
2023-02-07T11:24:12.401Z,7.97
2023-02-07T11:27:15.738Z,7.65
2023-02-07T11:29:54.733Z,7.90
2023-02-07T11:32:24.514Z,8.18
2023-02-07T11:35:06.308Z,6.72
2023-02-07T11:37:47.812Z,9.65
2023-02-07T11:40:23.629Z,8.68
2023-02-07T11:43:18.416Z,9.73
2023-02-07T11:45:48.188Z,9.32
2023-02-07T11:48:36.801Z,8.98
2023-02-07T11:51:06.547Z,9.27
2023-02-07T11:53:58.437Z,8.98
2023-02-07T11:56:26.721Z,10.20
2023-02-07T11:58:54.992Z,8.55
2023-02-07T12:01:30.169Z,9.05
2023-02-07T12:04:01.150Z,9.18
2023-02-07T12:07:09.727Z,8.05
2023-02-07T12:09:57.333Z,8.55
2023-02-07T12:12:50.686Z,8.25
2023-02-07T12:15:51.405Z,7.05
2023-02-07T12:18:20.960Z,7.85
2023-02-07T12:20:59.433Z,8.95
2023-02-07T12:23:45.533Z,6.95
2023-02-07T12:26:15.783Z,7.75
2023-02-07T12:28:53.291Z,7.68
2023-02-07T12:31:34.933Z,8.32
2023-02-07T12:34:14.879Z,8.02
2023-02-07T12:36:48.592Z,8.70
2023-02-07T12:39:40.935Z,10.20
2023-02-07T12:42:32.003Z,8.25
2023-02-07T12:45:01.672Z,7.80
2023-02-07T12:47:44.642Z,8.30
2023-02-07T12:50:36.000Z,7.85
2023-02-07T12:53:27.468Z,7.85
2023-02-07T12:56:08.854Z,8.15
2023-02-07T12:58:55.379Z,8.52
2023-02-07T13:01:29.417Z,7.78
2023-02-07T13:04:36.082Z,8.23
2023-02-07T13:07:35.331Z,8.23
2023-02-07T13:10:43.783Z,8.98
2023-02-07T13:13:23.774Z,8.68
2023-02-07T13:16:02.580Z,8.25
2023-02-07T13:18:55.268Z,7.13
2023-02-07T13:21:25.864Z,8.95
2023-02-07T13:23:57.885Z,8.98
2023-02-07T13:26:27.331Z,8.45
2023-02-07T13:28:56.477Z,7.82
2023-02-07T13:31:36.007Z,7.68
2023-02-07T13:34:03.515Z,7.30
2023-02-07T13:36:49.596Z,6.00
2023-02-07T13:39:30.079Z,6.63
2023-02-07T13:42:10.164Z,6.32
2023-02-07T13:44:52.114Z,6.70
2023-02-07T13:47:40.481Z,6.95
2023-02-07T13:50:40.252Z,6.82
2023-02-07T13:53:25.541Z,6.10
2023-02-07T13:55:52.566Z,7.60
2023-02-07T13:58:53.967Z,6.13
2023-02-07T14:01:27.062Z,7.43
2023-02-07T14:04:00.465Z,6.45
2023-02-07T14:06:33.625Z,7.65
2023-02-07T14:09:13.639Z,7.82
2023-02-07T14:12:19.112Z,7.93
2023-02-07T14:15:00.389Z,6.40
2023-02-07T14:17:28.613Z,6.93
2023-02-07T14:20:01.233Z,7.05
2023-02-07T14:22:54.143Z,7.30
2023-02-07T14:25:32.747Z,7.00
2023-02-07T14:28:05.380Z,7.38
2023-02-07T14:30:57.104Z,7.20
2023-02-07T14:33:35.999Z,7.60
2023-02-07T14:36:14.898Z,8.23
2023-02-07T14:38:43.138Z,6.78
2023-02-07T14:41:13.752Z,6.85
2023-02-07T14:44:10.480Z,7.43
2023-02-07T14:46:43.408Z,6.20
2023-02-07T14:49:37.088Z,7.50
2023-02-07T14:52:08.523Z,7.05
2023-02-07T14:54:43.062Z,6.80
2023-02-07T14:57:25.715Z,7.43
2023-02-07T15:00:42.893Z,6.75
2023-02-07T15:03:34.879Z,7.05
2023-02-07T15:06:16.225Z,6.10
2023-02-07T15:09:01.824Z,6.72
2023-02-07T15:11:30.464Z,7.57
2023-02-07T15:16:40.591Z,7.22
2023-02-07T15:19:46.699Z,6.70
2023-02-07T15:22:25.951Z,7.45
2023-02-07T15:24:56.869Z,8.65
2023-02-07T15:27:26.527Z,8.30
2023-02-07T15:29:59.188Z,7.45
2023-02-07T15:32:31.433Z,7.97
2023-02-07T15:34:59.532Z,8.63
2023-02-07T15:37:27.715Z,8.52
2023-02-07T15:39:58.552Z,7.10
2023-02-07T15:42:25.126Z,7.00
2023-02-07T15:44:57.006Z,6.63
2023-02-07T15:47:29.595Z,6.38
2023-02-07T15:50:14.544Z,4.93
2023-02-07T15:52:44.847Z,4.80
2023-02-07T15:55:35.709Z,6.38
2023-02-07T15:58:05.299Z,5.28
2023-02-07T16:00:38.707Z,5.55
2023-02-07T16:03:08.559Z,5.68
2023-02-07T16:05:39.015Z,4.93
2023-02-07T16:08:28.521Z,5.40
2023-02-07T16:10:55.138Z,5.78
2023-02-07T16:13:24.664Z,4.85
2023-02-07T16:15:56.556Z,4.95
2023-02-07T16:18:40.523Z,4.65
2023-02-07T16:21:12.757Z,4.82
2023-02-07T16:23:41.504Z,5.50
2023-02-07T16:26:08.674Z,5.68
2023-02-07T16:28:35.188Z,5.05
2023-02-07T16:31:02.357Z,5.78
2023-02-07T16:33:29.271Z,5.70
2023-02-07T16:35:55.857Z,5.47
2023-02-07T16:38:22.374Z,5.75
2023-02-07T16:40:49.775Z,6.03
2023-02-07T16:43:30.412Z,6.57
2023-02-07T16:45:57.031Z,5.90
2023-02-07T16:48:23.923Z,5.85
2023-02-07T16:50:51.171Z,5.32
2023-02-07T16:53:17.889Z,5.32
2023-02-07T16:55:44.834Z,5.57
2023-02-07T16:58:24.545Z,4.68
2023-02-07T17:00:52.793Z,5.25
2023-02-07T17:03:20.763Z,6.50
2023-02-07T17:05:48.303Z,5.75
2023-02-07T17:08:18.090Z,5.85
2023-02-07T17:10:51.876Z,5.25
2023-02-07T17:13:19.734Z,5.63
2023-02-07T17:15:46.760Z,4.93
2023-02-07T17:18:13.928Z,5.38
2023-02-07T17:20:41.835Z,5.00
2023-02-07T17:23:08.670Z,5.13
2023-02-07T17:25:35.211Z,5.80
2023-02-07T17:28:02.243Z,4.78
2023-02-07T17:30:35.145Z,5.53
2023-02-07T17:33:01.905Z,5.43
2023-02-07T17:35:28.604Z,4.50
2023-02-07T17:37:55.558Z,5.47
2023-02-07T17:40:38.083Z,5.43
2023-02-07T17:43:05.974Z,5.25
2023-02-07T17:45:35.583Z,5.43
2023-02-07T17:48:03.261Z,5.25
2023-02-07T17:50:35.792Z,5.75
2023-02-07T17:53:03.505Z,5.20
2023-02-07T17:55:32.283Z,6.22
2023-02-07T17:58:00.843Z,4.78
2023-02-07T18:00:47.258Z,5.82
2023-02-07T18:03:13.896Z,5.53
2023-02-07T18:05:42.498Z,4.88
2023-02-07T18:08:15.610Z,4.45
2023-02-07T18:10:44.272Z,5.60
2023-02-07T18:13:11.640Z,5.28
2023-02-07T18:15:39.332Z,6.50
2023-02-07T18:18:06.206Z,5.68
2023-02-07T18:20:34.609Z,4.45
2023-02-07T18:23:02.014Z,5.15
2023-02-07T18:25:30.062Z,6.25
2023-02-07T18:27:57.564Z,5.00
2023-02-07T18:30:26.640Z,5.70
2023-02-07T18:32:53.986Z,4.95
2023-02-07T18:35:21.410Z,5.38
2023-02-07T18:37:48.436Z,5.28
2023-02-07T18:40:15.926Z,5.63
2023-02-07T18:42:43.267Z,5.45
2023-02-07T18:45:10.921Z,5.43
2023-02-07T18:47:37.669Z,6.22
2023-02-07T18:50:04.983Z,5.93
2023-02-07T18:52:31.948Z,5.57
2023-02-07T18:54:58.991Z,6.07
2023-02-07T18:57:25.752Z,6.28
2023-02-07T18:59:52.524Z,5.68
2023-02-07T19:02:19.333Z,6.35
2023-02-07T19:04:48.408Z,5.50
2023-02-07T19:07:15.776Z,6.35
2023-02-07T19:09:43.095Z,6.45
2023-02-07T19:12:10.915Z,6.35
2023-02-07T19:14:37.929Z,7.75
2023-02-07T19:17:04.701Z,7.25
2023-02-07T19:19:32.204Z,7.80
2023-02-07T19:21:59.147Z,8.50
2023-02-07T19:24:26.643Z,7.05
2023-02-07T19:26:56.660Z,7.15
2023-02-07T19:29:29.648Z,7.18
2023-02-07T19:31:58.404Z,8.07
2023-02-07T19:34:25.367Z,7.43
2023-02-07T19:36:52.839Z,7.40
2023-02-07T19:39:20.887Z,7.35
2023-02-07T19:41:47.830Z,7.45
2023-02-07T19:44:14.782Z,7.82
2023-02-07T19:46:44.612Z,7.20
2023-02-07T19:49:12.844Z,8.60
2023-02-07T19:51:39.799Z,7.45
2023-02-07T19:54:09.617Z,6.68
2023-02-07T19:56:37.721Z,7.15
2023-02-07T19:59:06.778Z,7.32
2023-02-07T20:01:35.589Z,7.97
2023-02-07T20:04:04.274Z,6.57
2023-02-07T20:06:34.050Z,7.63
2023-02-07T20:09:08.281Z,7.75
2023-02-07T20:11:35.535Z,8.73
2023-02-07T20:14:03.674Z,7.28
2023-02-07T20:16:33.850Z,7.90
2023-02-07T20:19:02.337Z,8.48
2023-02-07T20:21:30.875Z,7.28
2023-02-07T20:23:59.891Z,8.60
2023-02-07T20:26:32.477Z,8.10
2023-02-07T20:29:02.548Z,7.05
2023-02-07T20:31:32.455Z,7.25
2023-02-07T20:33:59.784Z,7.07
2023-02-07T20:36:28.752Z,8.30
2023-02-07T20:38:59.366Z,8.60
2023-02-07T20:41:32.787Z,7.15
2023-02-07T20:44:05.522Z,8.10
2023-02-07T20:46:34.661Z,7.88
2023-02-07T20:49:05.759Z,7.72
2023-02-07T20:51:33.047Z,7.13
2023-02-07T20:54:02.173Z,8.40
2023-02-07T20:56:31.515Z,7.47
2023-02-07T20:58:59.623Z,8.15
2023-02-07T21:01:29.841Z,8.60
2023-02-07T21:03:59.826Z,7.65
2023-02-07T21:06:28.713Z,7.78
2023-02-07T21:09:00.714Z,8.23
2023-02-07T21:11:29.763Z,7.25
2023-02-07T21:16:23.806Z,7.35
2023-02-07T21:18:51.751Z,7.63
2023-02-07T21:21:19.747Z,7.80
2023-02-07T21:23:48.045Z,7.05
2023-02-07T21:26:15.900Z,7.90
2023-02-07T21:28:44.109Z,7.00
2023-02-07T21:31:14.726Z,8.23
2023-02-07T21:33:41.631Z,7.82
2023-02-07T21:36:10.689Z,7.50
2023-02-07T21:38:39.506Z,8.55
2023-02-07T21:41:09.299Z,8.20
2023-02-07T21:43:36.873Z,8.50
2023-02-07T21:46:18.443Z,6.82
2023-02-07T21:48:46.644Z,7.47
2023-02-07T21:51:16.183Z,7.82
2023-02-07T21:53:43.796Z,7.25
2023-02-07T21:56:13.085Z,8.38
2023-02-07T21:58:40.803Z,8.25
2023-02-07T22:01:12.930Z,7.43
2023-02-07T22:03:42.347Z,7.15
2023-02-07T22:06:09.940Z,8.32
2023-02-07T22:08:37.693Z,9.00
2023-02-07T22:11:12.357Z,10.30
2023-02-07T22:13:42.201Z,7.90
2023-02-07T22:16:13.572Z,9.30
2023-02-07T22:18:41.026Z,7.53
2023-02-07T22:21:22.327Z,8.40
2023-02-07T22:23:49.514Z,8.10
2023-02-07T22:26:18.144Z,7.10
2023-02-07T22:28:47.754Z,8.05
2023-02-07T22:31:17.791Z,7.93
2023-02-07T22:33:45.168Z,8.13
2023-02-07T22:36:16.098Z,9.60
2023-02-07T22:38:43.203Z,7.55
2023-02-07T22:41:10.170Z,8.13
2023-02-07T22:43:38.478Z,8.43
2023-02-07T22:46:06.993Z,9.48
2023-02-07T22:48:33.859Z,9.27
2023-02-07T22:51:26.195Z,8.05
2023-02-07T22:53:56.563Z,9.20
2023-02-07T22:56:24.109Z,9.20
2023-02-07T22:58:54.289Z,8.73
2023-02-07T23:01:30.190Z,9.25
2023-02-07T23:03:58.648Z,9.52
2023-02-07T23:06:26.095Z,10.55
2023-02-07T23:08:54.051Z,8.82
2023-02-07T23:11:23.558Z,11.18
2023-02-07T23:13:51.841Z,10.02
2023-02-07T23:16:29.272Z,9.63
2023-02-07T23:18:57.920Z,10.30
2023-02-07T23:21:26.935Z,9.07
2023-02-07T23:23:54.264Z,9.68
2023-02-07T23:26:23.145Z,10.48
2023-02-07T23:28:51.221Z,9.70
2023-02-07T23:31:20.919Z,9.02
2023-02-07T23:33:48.084Z,10.15
2023-02-07T23:36:17.422Z,9.40
2023-02-07T23:38:44.776Z,9.20
2023-02-07T23:41:11.358Z,9.63
2023-02-07T23:43:38.635Z,10.57
2023-02-07T23:46:07.070Z,9.32
2023-02-07T23:48:38.120Z,9.27
2023-02-07T23:51:06.208Z,9.82
2023-02-07T23:53:33.302Z,8.32
2023-02-07T23:56:00.368Z,10.90
2023-02-07T23:58:29.060Z,8.57
